createdAt,value
2019-05-10T00:00:10.331Z,1.47
2019-05-10T00:02:56.976Z,1.20
2019-05-10T00:05:43.247Z,1.90
2019-05-10T00:08:29.834Z,1.37
2019-05-10T00:11:06.521Z,1.33
2019-05-10T00:13:43.744Z,1.30
2019-05-10T00:16:12.662Z,1.50
2019-05-10T00:18:41.090Z,1.20
2019-05-10T00:21:09.520Z,1.67
2019-05-10T00:23:37.966Z,1.30
2019-05-10T00:26:06.530Z,2.70
2019-05-10T00:28:34.954Z,1.80
2019-05-10T00:31:03.474Z,1.80
2019-05-10T00:33:31.896Z,2.20
2019-05-10T00:36:00.329Z,2.00
2019-05-10T00:38:28.859Z,2.23
2019-05-10T00:40:57.357Z,2.40
2019-05-10T00:43:25.784Z,2.80
2019-05-10T00:45:54.306Z,2.73
2019-05-10T00:48:22.732Z,3.10
2019-05-10T00:50:51.154Z,3.07
2019-05-10T00:53:19.695Z,2.53
2019-05-10T00:55:48.193Z,2.30
2019-05-10T00:58:16.624Z,2.00
2019-05-10T01:00:45.292Z,1.60
2019-05-10T01:03:13.816Z,2.00
2019-05-10T01:05:42.249Z,1.47
2019-05-10T01:08:10.708Z,1.80
2019-05-10T01:10:39.132Z,2.10
2019-05-10T01:13:07.560Z,1.83
2019-05-10T01:15:36.012Z,1.87
2019-05-10T01:18:04.472Z,1.30
2019-05-10T01:20:32.895Z,1.97
2019-05-10T01:23:01.359Z,2.03
2019-05-10T01:25:35.318Z,1.73
2019-05-10T01:27:59.934Z,1.47
2019-05-10T01:30:28.449Z,1.37
2019-05-10T01:32:57.043Z,1.30
2019-05-10T01:35:25.540Z,1.77
2019-05-10T01:37:54.063Z,1.10
2019-05-10T01:40:22.487Z,1.37
2019-05-10T01:42:50.901Z,1.60
2019-05-10T01:45:19.694Z,1.20
2019-05-10T01:47:48.115Z,0.90
2019-05-10T01:50:16.686Z,1.40
2019-05-10T01:52:45.205Z,1.10
2019-05-10T01:55:14.069Z,1.20
2019-05-10T01:57:42.496Z,1.27
2019-05-10T02:00:11.586Z,1.60
2019-05-10T02:02:40.109Z,2.27
2019-05-10T02:05:08.929Z,2.00
2019-05-10T02:07:37.608Z,2.07
2019-05-10T02:10:07.184Z,2.00
2019-05-10T02:12:35.661Z,2.33
2019-05-10T02:15:05.849Z,3.20
2019-05-10T02:17:34.342Z,2.43
2019-05-10T02:20:03.032Z,2.00
2019-05-10T02:22:31.495Z,2.47
2019-05-10T02:24:59.968Z,2.70
2019-05-10T02:27:28.464Z,2.53
2019-05-10T02:29:56.973Z,2.77
2019-05-10T02:32:25.398Z,2.10
2019-05-10T02:34:53.828Z,2.60
2019-05-10T02:37:22.279Z,3.13
2019-05-10T02:39:50.703Z,2.30
2019-05-10T02:42:19.132Z,2.10
2019-05-10T02:44:47.753Z,2.23
2019-05-10T02:47:16.176Z,2.63
2019-05-10T02:49:44.645Z,2.30
2019-05-10T02:52:13.082Z,2.73
2019-05-10T02:54:41.566Z,1.93
2019-05-10T02:57:12.762Z,2.43
2019-05-10T02:59:43.577Z,1.80
2019-05-10T03:02:13.324Z,2.20
2019-05-10T03:04:43.345Z,3.03
2019-05-10T03:07:12.178Z,2.50
2019-05-10T03:09:40.610Z,3.43
2019-05-10T03:12:25.150Z,3.83
2019-05-10T03:14:58.135Z,3.20
2019-05-10T03:17:27.678Z,3.63
2019-05-10T03:19:56.357Z,3.53
2019-05-10T03:22:25.925Z,4.17
2019-05-10T03:24:54.667Z,5.57
2019-05-10T03:27:23.326Z,3.90
2019-05-10T03:29:52.188Z,4.17
2019-05-10T03:32:20.795Z,3.60
2019-05-10T03:34:49.301Z,3.07
2019-05-10T03:37:17.968Z,3.80
2019-05-10T03:39:46.460Z,4.07
2019-05-10T03:42:15.028Z,3.60
2019-05-10T03:44:43.413Z,4.20
2019-05-10T03:47:11.836Z,4.30
2019-05-10T03:49:40.351Z,4.20
2019-05-10T03:52:08.772Z,3.90
2019-05-10T03:54:37.269Z,4.10
2019-05-10T03:57:14.601Z,2.90
2019-05-10T03:59:35.930Z,3.80
2019-05-10T04:02:04.366Z,3.70
2019-05-10T04:04:32.886Z,4.10
2019-05-10T04:07:01.309Z,3.93
2019-05-10T04:09:29.722Z,4.60
2019-05-10T04:11:58.174Z,3.70
2019-05-10T04:14:26.596Z,4.20
2019-05-10T04:16:55.036Z,3.57
2019-05-10T04:19:23.472Z,3.23
2019-05-10T04:21:51.898Z,3.03
2019-05-10T04:24:20.507Z,3.97
2019-05-10T04:26:49.057Z,3.90
2019-05-10T04:29:17.552Z,3.67
2019-05-10T04:31:46.113Z,3.10
2019-05-10T04:34:14.814Z,4.10
2019-05-10T04:36:43.313Z,3.60
2019-05-10T04:39:11.732Z,3.90
2019-05-10T04:41:40.381Z,4.47
2019-05-10T04:44:08.835Z,4.23
2019-05-10T04:46:37.272Z,4.43
2019-05-10T04:49:05.988Z,4.10
2019-05-10T04:51:34.470Z,3.50
2019-05-10T04:54:02.900Z,3.73
2019-05-10T04:56:31.342Z,3.40
2019-05-10T04:58:59.826Z,3.53
2019-05-10T05:01:28.252Z,2.87
2019-05-10T05:03:56.905Z,2.47
2019-05-10T05:06:25.335Z,3.00
2019-05-10T05:08:53.771Z,2.90
2019-05-10T05:11:22.369Z,3.73
2019-05-10T05:13:50.785Z,3.60
2019-05-10T05:16:19.278Z,3.73
2019-05-10T05:18:47.731Z,4.40
2019-05-10T05:21:16.156Z,5.80
2019-05-10T05:23:44.688Z,7.10
2019-05-10T05:26:13.089Z,7.10
2019-05-10T05:28:41.511Z,7.33
2019-05-10T05:31:09.998Z,6.17
2019-05-10T05:33:38.572Z,6.30
2019-05-10T05:36:07.034Z,5.67
2019-05-10T05:38:40.500Z,5.03
2019-05-10T05:41:05.639Z,3.93
2019-05-10T05:43:34.064Z,3.37
2019-05-10T05:46:02.515Z,2.50
2019-05-10T05:48:40.139Z,3.80
2019-05-10T05:51:01.239Z,3.03
2019-05-10T05:53:29.725Z,3.40
2019-05-10T05:56:03.686Z,2.60
2019-05-10T05:58:28.348Z,3.30
2019-05-10T06:00:56.762Z,2.97
2019-05-10T06:03:29.715Z,2.77
2019-05-10T06:05:55.370Z,2.93
2019-05-10T06:08:25.077Z,3.23
2019-05-10T06:10:57.778Z,2.97
2019-05-10T06:13:30.516Z,2.60
2019-05-10T06:15:54.098Z,2.80
2019-05-10T06:18:22.551Z,3.50
2019-05-10T06:20:50.999Z,2.37
2019-05-10T06:23:19.418Z,2.83
2019-05-10T06:25:47.884Z,2.40
2019-05-10T06:28:26.272Z,1.60
2019-05-10T06:30:46.548Z,2.10
2019-05-10T06:33:15.063Z,2.17
2019-05-10T06:35:43.485Z,2.03
2019-05-10T06:38:11.903Z,1.97
2019-05-10T06:40:46.788Z,2.03
2019-05-10T06:43:13.288Z,1.70
2019-05-10T06:45:40.883Z,3.60
2019-05-10T06:48:09.500Z,2.17
2019-05-10T06:50:37.938Z,2.33
2019-05-10T06:53:10.756Z,2.30
2019-05-10T06:55:36.698Z,1.87
2019-05-10T06:58:05.120Z,2.40
2019-05-10T07:00:38.237Z,2.00
2019-05-10T07:03:03.974Z,1.60
2019-05-10T07:05:32.401Z,2.27
2019-05-10T07:08:13.842Z,1.30
2019-05-10T07:10:33.699Z,2.23
2019-05-10T07:13:03.451Z,1.87
2019-05-10T07:15:35.658Z,1.70
2019-05-10T07:18:02.801Z,1.97
2019-05-10T07:20:31.224Z,1.90
2019-05-10T07:23:05.369Z,1.50
2019-05-10T07:25:29.889Z,1.40
2019-05-10T07:27:58.330Z,2.23
2019-05-10T07:30:35.695Z,1.50
2019-05-10T07:33:04.557Z,1.97
2019-05-10T07:35:36.821Z,3.00
2019-05-10T07:38:03.474Z,2.27
2019-05-10T07:40:31.914Z,1.57
2019-05-10T07:43:00.411Z,1.20
2019-05-10T07:45:28.943Z,1.60
2019-05-10T07:47:57.440Z,1.50
2019-05-10T07:50:25.938Z,1.60
2019-05-10T07:52:54.487Z,1.03
2019-05-10T07:55:28.072Z,1.10
2019-05-10T07:57:53.094Z,1.53
2019-05-10T08:00:25.315Z,1.17
2019-05-10T08:03:02.333Z,1.10
2019-05-10T08:05:23.443Z,1.30
2019-05-10T08:07:51.894Z,1.23
2019-05-10T08:10:21.555Z,1.10
2019-05-10T08:12:50.153Z,1.10
2019-05-10T08:15:19.591Z,1.30
2019-05-10T08:17:48.721Z,1.17
2019-05-10T08:20:33.198Z,1.07
2019-05-10T08:22:48.536Z,0.97
2019-05-10T08:25:16.984Z,1.13
2019-05-10T08:27:50.513Z,1.30
2019-05-10T08:30:42.559Z,0.83
2019-05-10T08:33:09.781Z,1.63
2019-05-10T08:35:38.905Z,0.87
2019-05-10T08:38:08.541Z,0.80
2019-05-10T08:40:38.124Z,0.80
2019-05-10T08:43:09.737Z,1.13
2019-05-10T08:45:38.933Z,1.77
2019-05-10T08:48:07.362Z,1.00
2019-05-10T08:50:49.651Z,1.33
2019-05-10T08:53:10.692Z,0.93
2019-05-10T08:55:36.176Z,0.93
2019-05-10T08:58:04.729Z,1.30
2019-05-10T09:00:45.610Z,0.73
2019-05-10T09:03:09.522Z,1.23
2019-05-10T09:05:34.670Z,0.77
2019-05-10T09:08:05.837Z,0.80
2019-05-10T09:10:34.121Z,0.83
2019-05-10T09:13:03.440Z,1.20
2019-05-10T09:15:33.099Z,0.60
2019-05-10T09:18:04.418Z,0.73
2019-05-10T09:20:32.070Z,0.93
2019-05-10T09:23:02.407Z,0.87
2019-05-10T09:25:31.597Z,0.80
2019-05-10T09:28:02.373Z,0.70
2019-05-10T09:30:35.641Z,0.70
2019-05-10T09:33:08.619Z,0.50
2019-05-10T09:35:38.998Z,0.50
2019-05-10T09:38:04.827Z,0.60
2019-05-10T09:40:33.326Z,0.77
2019-05-10T09:43:07.712Z,0.90
2019-05-10T09:45:32.563Z,0.60
2019-05-10T09:48:02.510Z,0.60
2019-05-10T09:50:41.430Z,0.50
2019-05-10T09:53:01.773Z,0.80
2019-05-10T09:55:30.251Z,0.80
2019-05-10T09:57:58.682Z,0.60
2019-05-10T10:00:37.947Z,0.83
2019-05-10T10:03:08.284Z,0.70
2019-05-10T10:05:39.761Z,0.60
2019-05-10T10:08:09.080Z,0.73
2019-05-10T10:10:37.286Z,0.50
2019-05-10T10:13:13.546Z,0.60
2019-05-10T10:15:37.261Z,0.53
2019-05-10T10:18:06.161Z,0.50
2019-05-10T10:20:40.661Z,0.60
2019-05-10T10:23:07.260Z,0.50
2019-05-10T10:25:40.691Z,0.90
2019-05-10T10:28:10.304Z,0.60
2019-05-10T10:30:37.312Z,0.60
2019-05-10T10:33:11.709Z,0.50
2019-05-10T10:35:37.763Z,0.70
2019-05-10T10:38:08.085Z,0.70
2019-05-10T10:40:44.096Z,0.50
2019-05-10T10:43:07.702Z,0.60
2019-05-10T10:45:37.622Z,0.40
2019-05-10T10:48:10.716Z,0.70
2019-05-10T10:50:36.589Z,0.77
2019-05-10T10:53:07.751Z,0.80
2019-05-10T10:55:39.436Z,0.50
2019-05-10T10:58:07.341Z,0.60
2019-05-10T11:00:38.963Z,0.50
2019-05-10T11:03:07.035Z,1.00
2019-05-10T11:05:35.465Z,0.80
2019-05-10T11:08:04.925Z,0.87
2019-05-10T11:10:33.811Z,0.63
2019-05-10T11:13:10.652Z,0.70
2019-05-10T11:15:36.025Z,0.50
2019-05-10T11:18:03.004Z,0.70
2019-05-10T11:20:31.952Z,0.70
2019-05-10T11:23:00.454Z,0.73
2019-05-10T11:25:29.025Z,0.60
2019-05-10T11:28:00.938Z,0.80
2019-05-10T11:30:27.756Z,0.70
2019-05-10T11:32:56.326Z,0.73
2019-05-10T11:35:30.552Z,1.03
2019-05-10T11:37:55.048Z,0.67
2019-05-10T11:40:30.513Z,0.70
2019-05-10T11:42:53.672Z,0.80
2019-05-10T11:45:26.006Z,0.70
2019-05-10T11:47:56.770Z,0.80
2019-05-10T11:50:31.351Z,0.60
2019-05-10T11:52:53.312Z,1.00
2019-05-10T11:55:21.956Z,0.70
2019-05-10T12:00:28.545Z,0.70
2019-05-10T12:03:12.612Z,0.77
2019-05-10T12:05:26.434Z,1.07
2019-05-10T12:07:54.838Z,0.57
2019-05-10T12:10:25.760Z,0.57
2019-05-10T12:13:08.250Z,0.60
2019-05-10T12:15:25.280Z,0.60
2019-05-10T12:17:58.955Z,0.60
2019-05-10T12:20:39.533Z,0.63
2019-05-10T12:22:53.238Z,0.40
2019-05-10T12:25:37.573Z,0.70
2019-05-10T12:26:04.744Z,0.60
2019-05-10T12:27:52.494Z,0.60
2019-05-10T12:30:21.846Z,0.50
2019-05-10T12:33:05.848Z,0.50
2019-05-10T12:35:21.495Z,0.70
2019-05-10T12:37:54.035Z,0.57
2019-05-10T12:40:23.885Z,1.37
2019-05-10T12:42:50.725Z,0.60
2019-05-10T12:45:23.001Z,0.80
2019-05-10T12:47:51.711Z,0.90
2019-05-10T12:50:20.878Z,0.40
2019-05-10T12:53:02.608Z,1.10
2019-05-10T12:55:19.583Z,0.70
2019-05-10T12:57:48.004Z,0.70
2019-05-10T13:00:17.082Z,0.70
2019-05-10T13:02:51.282Z,0.73
2019-05-10T13:05:16.262Z,0.63
2019-05-10T13:07:45.019Z,0.53
2019-05-10T13:10:13.941Z,0.60
2019-05-10T13:12:46.825Z,0.70
2019-05-10T13:15:13.594Z,0.80
2019-05-10T13:17:50.497Z,0.60
2019-05-10T13:20:12.802Z,0.60
2019-05-10T13:22:41.273Z,0.93
2019-05-10T13:25:10.312Z,0.83
2019-05-10T13:27:39.079Z,1.00
2019-05-10T13:30:08.678Z,0.50
2019-05-10T13:32:37.260Z,1.10
2019-05-10T13:35:06.827Z,0.70
2019-05-10T13:37:35.410Z,0.70
2019-05-10T13:40:07.708Z,0.70
2019-05-10T13:42:40.764Z,0.80
2019-05-10T13:45:09.235Z,0.73
2019-05-10T13:47:37.642Z,0.70
2019-05-10T13:50:07.672Z,0.73
2019-05-10T13:52:38.809Z,0.73
2019-05-10T13:55:07.354Z,0.60
2019-05-10T13:57:35.778Z,0.83
2019-05-10T14:00:07.045Z,0.63
2019-05-10T14:02:35.544Z,0.70
2019-05-10T14:05:05.115Z,0.73
2019-05-10T14:07:33.738Z,0.60
2019-05-10T14:10:02.199Z,0.60
2019-05-10T14:12:30.612Z,0.57
2019-05-10T14:15:02.397Z,0.83
2019-05-10T14:17:29.382Z,0.70
2019-05-10T14:19:57.811Z,0.50
2019-05-10T14:22:26.337Z,0.90
2019-05-10T14:24:58.927Z,0.60
2019-05-10T14:27:29.776Z,0.50
2019-05-10T14:29:55.124Z,0.60
2019-05-10T14:32:23.547Z,0.60
2019-05-10T14:34:52.041Z,0.70
2019-05-10T14:37:21.673Z,0.50
2019-05-10T14:39:50.315Z,0.83
2019-05-10T14:42:23.926Z,0.40
2019-05-10T14:44:49.007Z,0.50
2019-05-10T14:47:17.493Z,0.60
2019-05-10T14:49:46.809Z,0.80
2019-05-10T14:52:16.191Z,0.90
2019-05-10T14:54:49.824Z,0.90
2019-05-10T14:57:14.850Z,0.50
2019-05-10T14:59:43.415Z,0.80
2019-05-10T15:02:17.107Z,0.77
2019-05-10T15:04:45.309Z,0.50
2019-05-10T15:07:14.447Z,0.50
2019-05-10T15:09:42.500Z,0.50
2019-05-10T15:12:16.385Z,0.70
2019-05-10T15:14:41.125Z,0.63
2019-05-10T15:17:09.652Z,0.47
2019-05-10T15:19:38.083Z,1.00
2019-05-10T15:22:06.706Z,0.67
2019-05-10T15:24:35.134Z,0.77
2019-05-10T15:27:03.643Z,0.60
2019-05-10T15:29:32.154Z,0.60
2019-05-10T15:32:00.647Z,0.63
2019-05-10T15:34:29.172Z,0.60
2019-05-10T15:37:02.774Z,0.60
2019-05-10T15:39:28.695Z,0.60
2019-05-10T15:41:59.093Z,0.50
2019-05-10T15:44:33.207Z,0.50
2019-05-10T15:47:00.057Z,0.50
2019-05-10T15:49:28.491Z,0.70
2019-05-10T15:52:16.145Z,1.13
2019-05-10T15:54:27.114Z,0.73
2019-05-10T15:56:56.057Z,0.50
2019-05-10T15:59:24.655Z,0.60
2019-05-10T16:01:53.126Z,0.53
2019-05-10T16:04:21.550Z,0.60
2019-05-10T16:06:50.004Z,0.80
2019-05-10T16:09:19.326Z,0.50
2019-05-10T16:11:48.035Z,0.80
2019-05-10T16:14:16.489Z,0.40
2019-05-10T16:16:44.987Z,0.50
2019-05-10T16:19:18.751Z,0.70
2019-05-10T16:21:46.724Z,0.80
2019-05-10T16:24:13.836Z,0.60
2019-05-10T16:26:42.236Z,0.50
2019-05-10T16:29:10.698Z,0.87
2019-05-10T16:31:39.124Z,0.77
2019-05-10T16:34:07.686Z,0.60
2019-05-10T16:36:36.206Z,0.80
2019-05-10T16:39:06.833Z,0.50
2019-05-10T16:41:35.284Z,0.60
2019-05-10T16:44:03.923Z,0.80
2019-05-10T16:46:32.347Z,0.70
2019-05-10T16:49:00.775Z,0.80
2019-05-10T16:51:29.360Z,1.03
2019-05-10T16:53:57.857Z,1.83
2019-05-10T16:56:26.461Z,1.43
2019-05-10T16:58:55.198Z,0.53
2019-05-10T17:01:25.974Z,1.03
2019-05-10T17:04:00.125Z,0.50
2019-05-10T17:06:24.015Z,0.60
2019-05-10T17:08:52.444Z,0.77
2019-05-10T17:11:20.945Z,0.57
2019-05-10T17:13:49.389Z,0.60
2019-05-10T17:16:18.889Z,0.63
2019-05-10T17:18:49.646Z,0.70
2019-05-10T17:21:17.888Z,0.80
2019-05-10T17:23:48.444Z,0.70
2019-05-10T17:26:16.457Z,0.83
2019-05-10T17:28:44.907Z,0.80
2019-05-10T17:31:13.399Z,1.00
2019-05-10T17:33:44.302Z,0.70
2019-05-10T17:36:14.647Z,0.93
2019-05-10T17:38:47.494Z,0.50
2019-05-10T17:41:12.560Z,0.93
2019-05-10T17:43:41.155Z,0.60
2019-05-10T17:46:12.771Z,0.60
2019-05-10T17:48:40.725Z,0.50
2019-05-10T17:51:10.346Z,0.57
2019-05-10T17:53:38.768Z,0.80
2019-05-10T17:56:07.195Z,0.90
2019-05-10T17:58:35.700Z,0.87
2019-05-10T18:01:04.261Z,0.80
2019-05-10T18:03:32.704Z,0.77
2019-05-10T18:06:01.409Z,1.20
2019-05-10T18:08:29.823Z,0.93
2019-05-10T18:11:03.978Z,1.00
2019-05-10T18:13:28.438Z,1.03
2019-05-10T18:15:56.900Z,0.60
2019-05-10T18:18:25.368Z,0.90
2019-05-10T18:20:53.929Z,0.63
2019-05-10T18:23:22.974Z,0.77
2019-05-10T18:25:52.566Z,0.90
2019-05-10T18:28:21.992Z,0.80
2019-05-10T18:30:50.449Z,0.80
2019-05-10T18:33:18.966Z,0.77
2019-05-10T18:35:52.638Z,0.60
2019-05-10T18:38:17.630Z,0.70
2019-05-10T18:40:46.125Z,0.60
2019-05-10T18:43:14.582Z,0.50
2019-05-10T18:45:43.072Z,0.93
2019-05-10T18:48:11.498Z,1.00
2019-05-10T18:50:45.129Z,1.10
2019-05-10T18:53:10.312Z,0.70
2019-05-10T18:55:38.749Z,1.40
2019-05-10T18:58:07.267Z,0.70
2019-05-10T19:00:35.759Z,1.33
2019-05-10T19:03:04.424Z,1.43
2019-05-10T19:05:33.272Z,1.10
2019-05-10T19:08:05.405Z,1.53
2019-05-10T19:10:31.957Z,1.97
2019-05-10T19:13:03.770Z,1.10
2019-05-10T19:15:30.559Z,1.60
2019-05-10T19:17:58.973Z,0.90
2019-05-10T19:20:27.462Z,1.30
2019-05-10T19:22:55.890Z,1.30
2019-05-10T19:25:24.375Z,1.10
2019-05-10T19:27:52.901Z,1.00
2019-05-10T19:30:22.546Z,1.37
2019-05-10T19:32:55.867Z,0.80
2019-05-10T19:35:21.361Z,1.20
2019-05-10T19:37:49.788Z,1.13
2019-05-10T19:40:18.723Z,1.10
2019-05-10T19:42:49.455Z,1.77
2019-05-10T19:45:19.717Z,1.37
2019-05-10T19:47:49.990Z,1.17
2019-05-10T19:50:18.176Z,1.37
2019-05-10T19:52:46.640Z,1.00
2019-05-10T19:55:19.565Z,0.93
2019-05-10T19:57:49.452Z,1.63
2019-05-10T20:00:15.859Z,1.53
2019-05-10T20:02:44.389Z,2.20
2019-05-10T20:05:13.180Z,1.20
2019-05-10T20:07:46.113Z,1.43
2019-05-10T20:10:12.291Z,1.80
2019-05-10T20:12:40.788Z,1.13
2019-05-10T20:15:09.953Z,1.80
2019-05-10T20:17:38.950Z,0.90
2019-05-10T20:20:08.033Z,7.27
2019-05-10T20:22:36.724Z,1.70
2019-05-10T20:25:06.799Z,3.33
2019-05-10T20:27:35.273Z,2.03
2019-05-10T20:30:04.434Z,2.50
2019-05-10T20:32:32.868Z,1.10
2019-05-10T20:35:01.346Z,2.10
2019-05-10T20:37:29.767Z,1.60
2019-05-10T20:39:58.186Z,1.50
2019-05-10T20:42:26.912Z,1.50
2019-05-10T20:45:06.878Z,1.73
2019-05-10T20:47:25.490Z,1.20
2019-05-10T20:49:54.045Z,1.60
2019-05-10T20:52:22.476Z,1.67
2019-05-10T20:54:50.959Z,2.80
2019-05-10T20:57:19.448Z,2.00
2019-05-10T20:59:47.866Z,1.70
2019-05-10T21:02:16.291Z,1.47
2019-05-10T21:04:44.745Z,1.77
2019-05-10T21:07:13.352Z,2.00
2019-05-10T21:09:41.770Z,1.10
2019-05-10T21:12:10.227Z,2.23
2019-05-10T21:14:38.672Z,2.30
2019-05-10T21:17:07.099Z,1.63
2019-05-10T21:19:35.558Z,1.67
2019-05-10T21:22:03.979Z,2.50
2019-05-10T21:24:32.401Z,1.70
2019-05-10T21:27:00.970Z,2.17
2019-05-10T21:29:29.416Z,2.20
2019-05-10T21:31:57.902Z,2.20
2019-05-10T21:34:26.506Z,1.77
2019-05-10T21:36:54.911Z,1.90
2019-05-10T21:39:23.340Z,1.90
2019-05-10T21:41:51.859Z,2.50
2019-05-10T21:44:20.360Z,2.00
2019-05-10T21:46:48.787Z,2.77
2019-05-10T21:49:17.324Z,1.90
2019-05-10T21:51:45.738Z,2.33
2019-05-10T21:54:14.226Z,1.93
2019-05-10T21:56:42.825Z,2.07
2019-05-10T21:59:11.271Z,1.77
2019-05-10T22:01:39.903Z,2.03
2019-05-10T22:04:08.366Z,1.67
2019-05-10T22:06:38.499Z,2.23
2019-05-10T22:09:08.441Z,2.33
2019-05-10T22:11:36.857Z,2.20
2019-05-10T22:14:05.363Z,2.97
2019-05-10T22:16:33.867Z,2.33
2019-05-10T22:19:02.819Z,1.93
2019-05-10T22:21:31.408Z,1.80
2019-05-10T22:23:59.856Z,2.67
2019-05-10T22:26:28.455Z,2.40
2019-05-10T22:28:56.875Z,2.40
2019-05-10T22:31:25.305Z,2.00
2019-05-10T22:33:53.754Z,2.00
2019-05-10T22:36:22.186Z,2.47
2019-05-10T22:39:05.964Z,2.17
2019-05-10T22:41:20.842Z,3.03
2019-05-10T22:43:49.297Z,2.70
2019-05-10T22:46:17.736Z,3.47
2019-05-10T22:48:46.355Z,4.70
2019-05-10T22:51:14.787Z,5.10
2019-05-10T22:53:43.282Z,5.53
2019-05-10T22:56:11.753Z,4.00
2019-05-10T22:58:40.185Z,4.30
2019-05-10T23:01:08.682Z,3.70
2019-05-10T23:03:37.229Z,4.87
2019-05-10T23:06:05.651Z,6.07
2019-05-10T23:08:34.161Z,4.47
2019-05-10T23:11:02.765Z,5.10
2019-05-10T23:13:31.177Z,5.07
2019-05-10T23:15:59.631Z,5.03
2019-05-10T23:18:28.095Z,4.90
2019-05-10T23:20:56.888Z,4.97
2019-05-10T23:23:25.326Z,5.50
2019-05-10T23:25:53.857Z,5.53
2019-05-10T23:28:22.278Z,4.70
2019-05-10T23:30:50.743Z,5.20
2019-05-10T23:33:19.217Z,5.47
2019-05-10T23:35:47.639Z,4.90
2019-05-10T23:38:16.136Z,4.87
2019-05-10T23:40:44.598Z,3.80
2019-05-10T23:43:13.157Z,4.97
2019-05-10T23:45:41.582Z,4.33
2019-05-10T23:48:10.111Z,4.67
2019-05-10T23:50:38.531Z,4.53
2019-05-10T23:53:06.959Z,4.77
2019-05-10T23:55:35.406Z,3.43
2019-05-10T23:58:03.917Z,5.57
